KLEX Airport Diagram

We have created a template for each of the higher traffic airports in the vZID airspace. They include KCMH, KCRW, KCVG, KDAY, KIND, KLEX and KSDF. You wil find usefull information including the airport diagram, weather, and specific airport procedures.

KLEX Weather

[Source: ADDS]
METAR
KLEX 180354Z 35003KT 10SM CLR 08/02 A3042 RMK AO2 SLP300 T00780017 =
KLEX 172322Z 1800/1824 34006KT P6SM SCT250 FM181300 05008KT P6SM FEW250
TAF
KLEX 172322Z 1800/1824 34006KT P6SM SCT250 FM181300 05008KT P6SM FEW250 =

KLEX Operations

Calm wind runway at KLEX is Runway 22, up to and including 10kts.

Default scenery shows Runway 8/26, which crosses Runway 22. When taxiing to Runway 22, clearance to cross Runway 26 not required.

Updated scenery available at www.flightsim.com.

 

JSN Epic template designed by JoomlaShine.com